Empuriabrava, Spain
Current Conditions -  °F | °C
As of 7:00 PM on Wednesday 28 Jan 2015 (Local Time) from LEGE Reporting Station
Few Clouds Few Clouds  
Wind Chill: 45°   Ceiling: Unl
Heat Index: 45°   Visibility: 6mi
Dew Point: 39°   Wind: 2mph
Humidity: 81%   Direction: NA
Pressure: 30.12"   Gusts: NA
Location:  42.25°N, 3.12°E
Report Text: LEGE 281800Z VRB02KT 9999 FEW040 07/04 Q1020
Loading
Personal Weather Stations






























Interactive Weather Map New forecast layout! Learn more

10-Day Weather Forecast

Advertisements
Track Severe Weather on mobile